createdAt,value
2018-05-26T06:39:53.097Z,50.1
2018-05-26T06:40:42.586Z,50.2
2018-05-26T06:41:32.941Z,50.3
2018-05-26T06:42:23.296Z,50.4
2018-05-26T06:43:13.358Z,50.5
2018-05-26T06:44:03.411Z,50.6
2018-05-26T06:44:53.501Z,50.7
2018-05-26T06:45:43.549Z,50.8
2018-05-26T06:46:33.604Z,50.9
2018-05-26T06:47:23.401Z,51.1
2018-05-26T06:48:13.736Z,51.2
2018-05-26T06:49:03.544Z,51.3
2018-05-26T06:49:53.581Z,51.3
2018-05-26T06:50:44.026Z,51.4
2018-05-26T06:51:34.000Z,51.6
2018-05-26T06:52:24.054Z,51.7
2018-05-26T06:53:14.129Z,51.8
2018-05-26T06:54:54.264Z,52.1
2018-05-26T06:55:44.027Z,52.2
2018-05-26T06:56:34.371Z,52.3
2018-05-26T06:57:24.461Z,52.4
2018-05-26T06:58:14.235Z,52.6
2018-05-26T06:59:04.577Z,52.7
2018-05-26T06:59:54.637Z,52.8
2018-05-26T07:00:44.706Z,52.8
2018-05-26T07:01:34.765Z,52.9
2018-05-26T07:02:24.840Z,52.9
2018-05-26T07:03:14.903Z,53.1
2018-05-26T07:04:04.979Z,53.2
2018-05-26T07:04:54.754Z,53.3
2018-05-26T07:05:45.080Z,53.4
2018-05-26T07:06:35.154Z,53.6
2018-05-26T07:07:25.210Z,53.6
2018-05-26T07:08:15.289Z,53.8
2018-05-26T07:09:05.369Z,53.9
2018-05-26T07:09:55.438Z,54
2018-05-26T07:10:45.205Z,54.1
2018-05-26T07:11:35.547Z,54.3
2018-05-26T07:12:25.330Z,54.4
2018-05-26T07:13:15.665Z,54.5
2018-05-26T07:14:05.178Z,54.7
2018-05-26T07:14:55.812Z,54.8
2018-05-26T07:15:45.859Z,54.9
2018-05-26T07:16:35.935Z,55.1
2018-05-26T07:17:25.998Z,55
2018-05-26T07:18:15.497Z,54.9
2018-05-26T07:19:06.138Z,54.9
2018-05-26T07:19:55.912Z,55.1
2018-05-26T07:20:46.259Z,55.2
2018-05-26T07:21:36.048Z,55.4
2018-05-26T07:22:26.391Z,55.5
2018-05-26T07:23:16.477Z,55.6
2018-05-26T07:24:06.509Z,55.8
2018-05-26T07:24:56.572Z,55.9
2018-05-26T07:25:46.641Z,56
2018-05-26T07:26:36.438Z,56.2
2018-05-26T07:27:26.500Z,56.4
2018-05-26T07:28:16.853Z,56.4
2018-05-26T07:29:06.626Z,56.3
2018-05-26T07:29:56.967Z,56.1
2018-05-26T07:30:47.050Z,55.9
2018-05-26T07:31:37.091Z,55.8
2018-05-26T07:32:27.167Z,56
2018-05-26T07:33:16.959Z,56.4
2018-05-26T07:34:07.286Z,56.8
2018-05-26T07:34:57.362Z,57
2018-05-26T07:35:47.146Z,57.1
2018-05-26T07:36:37.501Z,57.3
2018-05-26T07:37:27.571Z,57.4
2018-05-26T07:38:17.599Z,57.6
2018-05-26T07:39:57.750Z,57.9
2018-05-26T07:40:47.798Z,58.1
2018-05-26T07:41:37.883Z,58.2
2018-05-26T07:42:27.657Z,58.3
2018-05-26T07:43:17.430Z,58.4
2018-05-26T07:44:58.140Z,58.8
2018-05-26T07:45:48.182Z,58.9
2018-05-26T07:46:37.969Z,59
2018-05-26T07:47:28.327Z,59.1
2018-05-26T07:48:18.380Z,59.3
2018-05-26T07:49:08.459Z,59.4
2018-05-26T07:49:58.532Z,59.5
2018-05-26T07:50:48.292Z,59.6
2018-05-26T07:51:38.654Z,59.8
2018-05-26T07:52:28.424Z,59.9
2018-05-26T07:53:18.785Z,60
2018-05-26T07:54:08.829Z,60.2
2018-05-26T07:54:58.899Z,60.3
2018-05-26T07:55:48.976Z,60.4
2018-05-26T07:56:39.041Z,60.6
2018-05-26T07:57:29.100Z,60.7
2018-05-26T07:58:19.210Z,60.8
2018-05-26T07:59:09.238Z,60.9
2018-05-26T07:59:58.998Z,61.1
2018-05-26T08:00:49.396Z,61.2
2018-05-26T08:01:39.408Z,61.3
2018-05-26T08:02:29.500Z,61.4
2018-05-26T08:03:19.547Z,61.6
2018-05-26T08:04:09.603Z,61.7
2018-05-26T08:04:59.679Z,61.8
2018-05-26T08:05:49.456Z,61.9
2018-05-26T08:06:39.539Z,62.1
2018-05-26T08:07:29.867Z,62.2
2018-05-26T08:08:19.664Z,62.3
2018-05-26T08:09:10.017Z,62.4
2018-05-26T08:09:59.518Z,62.6
2018-05-26T08:10:50.282Z,62.6
2018-05-26T08:11:40.211Z,62.8
2018-05-26T08:12:30.259Z,62.9
2018-05-26T08:13:20.323Z,63
2018-05-26T08:14:10.397Z,63.1
2018-05-26T08:15:00.177Z,63.3
2018-05-26T08:15:50.753Z,63.4
2018-05-26T08:16:40.599Z,63.5
2018-05-26T08:17:30.604Z,63.6
2018-05-26T08:18:20.158Z,63.8
2018-05-26T08:19:10.805Z,63.9
2018-05-26T08:20:00.866Z,63.9
2018-05-26T08:20:50.915Z,64.1
2018-05-26T08:21:40.700Z,64.2
2018-05-26T08:22:30.756Z,64.3
2018-05-26T08:23:21.138Z,64.4
2018-05-26T08:24:11.199Z,64.4
2018-05-26T08:25:01.231Z,64.6
2018-05-26T08:25:51.331Z,64.7
2018-05-26T08:26:41.367Z,64.8
2018-05-26T08:27:31.154Z,64.9
2018-05-26T08:28:21.507Z,64.9
2018-05-26T08:29:11.580Z,65
2018-05-26T08:30:01.077Z,65.1
2018-05-26T08:30:51.723Z,65.3
2018-05-26T08:31:41.769Z,65.3
2018-05-26T08:32:31.843Z,65.4
2018-05-26T08:33:21.608Z,65.6
2018-05-26T08:34:11.951Z,65.6
2018-05-26T08:35:02.026Z,65.5
2018-05-26T08:35:52.084Z,65.5
2018-05-26T08:36:42.158Z,65.6
2018-05-26T08:37:32.236Z,65.8
2018-05-26T08:38:22.298Z,65.9
2018-05-26T08:39:12.354Z,66.1
2018-05-26T08:40:02.418Z,66.1
2018-05-26T08:40:52.470Z,66.3
2018-05-26T08:41:42.557Z,66.3
2018-05-26T08:42:32.332Z,66.4
2018-05-26T08:43:22.673Z,66.5
2018-05-26T08:44:12.469Z,66.6
2018-05-26T08:45:02.828Z,66.7
2018-05-26T08:45:52.874Z,66.8
2018-05-26T08:46:42.650Z,66.8
2018-05-26T08:47:32.995Z,66.9
2018-05-26T08:48:23.059Z,66.9
2018-05-26T08:49:13.124Z,67.1
2018-05-26T08:50:03.227Z,67.2
2018-05-26T08:50:53.244Z,67.3
2018-05-26T08:51:43.324Z,67.4
2018-05-26T08:52:33.384Z,67.4
2018-05-26T08:53:23.463Z,67.6
2018-05-26T08:54:13.530Z,67.6
2018-05-26T08:55:03.580Z,67.6
2018-05-26T08:55:53.654Z,67.3
2018-05-26T08:56:43.716Z,66.8
2018-05-26T08:57:33.776Z,66.6
2018-05-26T08:58:23.576Z,66.8
2018-05-26T08:59:13.920Z,67.2
2018-05-26T09:00:03.992Z,67.3
2018-05-26T09:00:54.081Z,67.5
2018-05-26T09:01:44.105Z,67.6
2018-05-26T09:02:33.888Z,67.8
2018-05-26T09:03:23.960Z,67.9
2018-05-26T09:04:14.314Z,67.6
2018-05-26T09:05:04.097Z,67.3
2018-05-26T09:05:54.148Z,66.9
2018-05-26T09:06:44.208Z,66.6
2018-05-26T09:07:34.268Z,66.4
2018-05-26T09:08:24.632Z,66.6
2018-05-26T09:09:14.695Z,66.9
2018-05-26T09:10:04.467Z,67.1
2018-05-26T09:10:54.535Z,66.9
2018-05-26T09:11:44.891Z,66.6
2018-05-26T09:12:34.671Z,66.5
2018-05-26T09:13:24.739Z,66.9
2018-05-26T09:14:14.811Z,67.3
2018-05-26T09:15:05.140Z,67.8
2018-05-26T09:15:55.224Z,68
2018-05-26T09:16:45.268Z,68.1
2018-05-26T09:17:35.338Z,68.1
2018-05-26T09:18:25.420Z,67.9
2018-05-26T09:19:15.485Z,67.8
2018-05-26T09:20:05.522Z,67.9
2018-05-26T09:20:55.332Z,68.2
2018-05-26T09:21:45.426Z,68.2
2018-05-26T09:22:35.722Z,67.9
2018-05-26T09:23:25.782Z,67.5
2018-05-26T09:24:15.864Z,67.2
2018-05-26T09:25:05.852Z,67.1
2018-05-26T09:25:55.982Z,67.3
2018-05-26T09:26:46.055Z,67.8
2018-05-26T09:27:35.856Z,68.1
2018-05-26T09:28:25.907Z,67.9
2018-05-26T09:29:16.244Z,67.7
2018-05-26T09:30:06.026Z,67.9
2018-05-26T09:30:56.376Z,68.4
2018-05-26T09:31:46.166Z,68.8
2018-05-26T09:32:36.504Z,68.7
2018-05-26T09:33:26.605Z,68.5
2018-05-26T09:34:16.649Z,68.4
2018-05-26T09:35:06.692Z,68.4
2018-05-26T09:35:56.775Z,68.5
2018-05-26T09:36:46.845Z,68.8
2018-05-26T09:37:36.644Z,69.1
2018-05-26T09:38:26.960Z,69.3
2018-05-26T09:39:17.064Z,69.3
2018-05-26T09:40:06.903Z,69.4
2018-05-26T09:40:57.183Z,69.5
2018-05-26T09:41:46.955Z,69.6
2018-05-26T09:42:37.294Z,69.8
2018-05-26T09:43:27.361Z,69.9
2018-05-26T09:44:17.473Z,69.9
2018-05-26T09:45:07.484Z,70.1
2018-05-26T09:45:56.999Z,70.1
2018-05-26T09:46:47.629Z,70.2
2018-05-26T09:47:37.706Z,70.3
2018-05-26T09:48:27.740Z,70.4
2018-05-26T09:49:17.813Z,70.5
2018-05-26T09:50:07.876Z,70.6
2018-05-26T09:50:57.935Z,70.7
2018-05-26T09:51:47.996Z,70.8
2018-05-26T09:52:38.064Z,70.9
2018-05-26T09:53:27.860Z,71
2018-05-26T09:54:18.204Z,71.1
2018-05-26T09:55:08.271Z,71.2
2018-05-26T09:55:58.502Z,71.3
2018-05-26T09:56:48.399Z,71.3
2018-05-26T09:57:38.477Z,71.4
2018-05-26T09:58:28.523Z,71.6
2018-05-26T09:59:18.325Z,71.6
2018-05-26T10:00:08.371Z,71.6
2018-05-26T10:00:58.728Z,71.8
2018-05-26T10:01:48.815Z,71.8
2018-05-26T10:02:38.865Z,71.9
2018-05-26T10:03:28.917Z,72
2018-05-26T10:04:18.767Z,71.9
2018-05-26T10:05:09.065Z,71.8
2018-05-26T10:05:58.841Z,71.9
2018-05-26T10:06:49.190Z,72
2018-05-26T10:07:38.975Z,71.9
2018-05-26T10:08:29.311Z,71.8
2018-05-26T10:09:19.455Z,71.6
2018-05-26T10:10:09.447Z,71.3
2018-05-26T10:10:59.510Z,71.3
2018-05-26T10:11:49.572Z,71.6
2018-05-26T10:12:39.637Z,71.7
2018-05-26T10:13:29.868Z,71.4
2018-05-26T10:14:19.770Z,71.2
2018-05-26T10:15:09.848Z,71
2018-05-26T10:15:59.905Z,71.2
2018-05-26T10:16:49.991Z,71.5
2018-05-26T10:17:39.749Z,71.7
2018-05-26T10:18:29.809Z,71.8
2018-05-26T10:19:20.165Z,72
2018-05-26T10:20:09.948Z,72.2
2018-05-26T10:21:00.286Z,72.3
2018-05-26T10:21:50.370Z,72.3
2018-05-26T10:22:40.427Z,72.3
2018-05-26T10:23:30.191Z,72.4
2018-05-26T10:24:20.590Z,72.7
2018-05-26T10:25:10.322Z,72.9
2018-05-26T10:26:00.679Z,72.9
2018-05-26T10:26:50.752Z,72.7
2018-05-26T10:27:40.798Z,72.5
2018-05-26T10:28:30.936Z,72.2
2018-05-26T10:29:20.927Z,72.1
2018-05-26T10:30:10.996Z,72.3
2018-05-26T10:31:01.067Z,72.8
2018-05-26T10:31:51.112Z,72.6
2018-05-26T10:32:41.200Z,72.3
2018-05-26T10:33:31.283Z,72
2018-05-26T10:34:21.312Z,72.2
2018-05-26T10:35:11.400Z,72.6
2018-05-26T10:36:01.209Z,72.7
2018-05-26T10:36:51.232Z,72.4
2018-05-26T10:37:41.594Z,71.9
2018-05-26T10:38:31.644Z,71.8
2018-05-26T10:39:21.713Z,72.3
2018-05-26T10:40:11.781Z,72.6
2018-05-26T10:41:01.843Z,72.5
2018-05-26T10:47:42.367Z,85
2018-05-26T10:48:32.426Z,73
2018-05-26T10:49:22.521Z,73
2018-05-26T10:50:12.558Z,72.8
2018-05-26T10:51:02.369Z,72.4
2018-05-26T10:51:52.406Z,72.3
2018-05-26T10:52:42.508Z,72.6
2018-05-26T10:53:32.835Z,73
2018-05-26T10:54:22.902Z,73.3
2018-05-26T10:55:12.954Z,73.4
2018-05-26T10:56:03.018Z,73.4
2018-05-26T10:56:53.096Z,73.1
2018-05-26T10:57:42.871Z,72.9
2018-05-26T10:58:33.224Z,73
2018-05-26T10:59:23.284Z,73.3
2018-05-26T11:00:13.345Z,73.5
2018-05-26T11:01:03.424Z,73.7
2018-05-26T11:01:53.479Z,73.7
2018-05-26T11:19:24.470Z,85
2018-05-26T11:20:15.104Z,85
2018-05-26T11:21:04.709Z,73.5
2018-05-26T11:21:54.789Z,73.6
2018-05-26T11:26:55.439Z,74.1
2018-05-26T11:27:45.525Z,74.1
2018-05-26T11:28:35.568Z,74.2
2018-05-26T11:29:25.646Z,74.3
2018-05-26T11:30:15.426Z,74.3
2018-05-26T11:31:05.601Z,74.3
2018-05-26T11:31:55.843Z,74.4
2018-05-26T11:32:45.899Z,74.5
2018-05-26T11:33:35.969Z,74.5
2018-05-26T11:34:26.047Z,74.6
2018-05-26T11:35:16.085Z,74.6
2018-05-26T11:36:05.887Z,74.6
2018-05-26T11:36:56.236Z,74.6
2018-05-26T11:37:46.297Z,74.7
2018-05-26T11:38:36.085Z,74.7
2018-05-26T11:39:26.496Z,74.8
2018-05-26T11:40:16.252Z,74.8
2018-05-26T11:41:06.544Z,74.8
2018-05-26T11:41:56.327Z,74.9
2018-05-26T11:42:46.407Z,74.9
2018-05-26T11:43:36.504Z,74.9
2018-05-26T11:44:26.834Z,74.9
2018-05-26T11:45:16.874Z,74.9
2018-05-26T11:46:06.945Z,75
2018-05-26T11:46:57.021Z,75
2018-05-26T11:47:46.854Z,75.1
2018-05-26T11:48:37.144Z,75.1
2018-05-26T11:49:26.642Z,75.1
2018-05-26T11:50:17.032Z,75.2
2018-05-26T11:51:07.362Z,75.2
2018-05-26T11:51:57.127Z,75.2
2018-05-26T11:52:47.475Z,75.2
2018-05-26T11:53:37.540Z,75.3
2018-05-26T11:54:27.601Z,75.3
2018-05-26T11:55:17.660Z,75.3
2018-05-26T11:56:07.450Z,75.4
2018-05-26T11:56:57.510Z,75.4
2018-05-26T11:57:47.572Z,75.4
2018-05-26T11:58:37.921Z,75.4
2018-05-26T11:59:27.715Z,75.5
2018-05-26T12:00:18.047Z,75.5
2018-05-26T12:01:08.144Z,75.6
2018-05-26T12:01:58.258Z,75.5
2018-05-26T12:02:48.273Z,75.6
2018-05-26T12:03:38.309Z,75.6
2018-05-26T12:04:28.394Z,75.6
2018-05-26T12:05:18.439Z,75.6
2018-05-26T12:06:08.543Z,75.6
2018-05-26T12:06:58.578Z,75.6
2018-05-26T12:07:48.643Z,75.6
2018-05-26T12:08:38.707Z,75.7
2018-05-26T12:09:28.788Z,75.6
2018-05-26T12:10:18.844Z,75.6
2018-05-26T12:11:09.137Z,75.7
2018-05-26T12:11:58.973Z,75.7
2018-05-26T12:12:49.038Z,75.7
2018-05-26T12:13:39.117Z,75.8
2018-05-26T12:14:29.174Z,75.8
2018-05-26T12:15:19.232Z,75.8
2018-05-26T12:16:09.289Z,75.8
2018-05-26T12:16:59.360Z,75.8
2018-05-26T12:17:49.433Z,75.8
2018-05-26T12:18:39.509Z,75.8
2018-05-26T12:19:29.573Z,75.8
2018-05-26T12:20:19.626Z,75.8
2018-05-26T12:21:09.691Z,75.8
2018-05-26T12:21:59.767Z,75.8
2018-05-26T12:22:49.816Z,75.8
2018-05-26T12:23:39.892Z,75.9
2018-05-26T12:24:29.988Z,76.1
2018-05-26T12:25:20.082Z,75
2018-05-26T12:26:09.824Z,74.1
2018-05-26T12:27:00.293Z,74.8
2018-05-26T12:27:50.213Z,75.3
2018-05-26T12:28:40.011Z,75.3
2018-05-26T12:29:30.363Z,75.2
2018-05-26T12:30:20.417Z,75.3
2018-05-26T12:31:10.196Z,75.5
2018-05-26T12:32:00.542Z,74.8
2018-05-26T12:32:50.632Z,74.4
2018-05-26T12:33:40.702Z,75
2018-05-26T12:34:30.743Z,75.6
2018-05-26T12:47:01.732Z,85
2018-05-26T12:47:51.812Z,75.6
2018-05-26T13:22:54.559Z,85
2018-05-26T13:23:44.341Z,74.2
